Time;durP1;ratioP1;P1;durP2;ratioP2;P2;SDS_P1;SDS_P2;PMS_P1;PMS_P2;Temp;Humidity;BMP_temperature;BMP_pressure;BME280_temperature;BME280_humidity;BME280_pressure;Samples;Min_cycle;Max_cycle;Signal;HPM_P1;HPM_P2
2023/01/06 00:01:18;;;;;;;2.50;1.05;;;;;;;6.72;94.97;99240.63;4952722;29;20047;-73
2023/01/06 00:04:03;;;;;;;3.20;1.30;;;;;;;6.73;94.83;99241.44;4950120;29;20043;-73
2023/01/06 00:06:47;;;;;;;5.38;1.38;;;;;;;6.71;94.99;99245.91;4952152;29;20416;-72
2023/01/06 00:09:33;;;;;;;3.90;1.10;;;;;;;6.76;94.85;99247.38;4944410;29;20117;-75
2023/01/06 00:12:17;;;;;;;5.55;1.30;;;;;;;6.79;94.61;99246.38;4952217;29;20079;-72
2023/01/06 00:15:03;;;;;;;3.70;1.20;;;;;;;6.82;94.49;99237.59;4951828;29;20091;-72
2023/01/06 00:17:48;;;;;;;4.55;1.20;;;;;;;6.87;94.29;99249.47;4936117;29;20455;-73
2023/01/06 00:20:34;;;;;;;3.75;1.27;;;;;;;6.83;94.54;99247.94;4949566;29;20190;-72
2023/01/06 00:23:18;;;;;;;2.95;1.02;;;;;;;6.79;94.59;99248.97;4927432;29;20043;-73
2023/01/06 00:26:06;;;;;;;3.30;1.25;;;;;;;6.82;94.83;99255.81;4951790;29;20118;-72
2023/01/06 00:28:55;;;;;;;5.95;1.38;;;;;;;6.89;94.00;99247.66;4952231;29;20054;-74
2023/01/06 00:31:39;;;;;;;5.15;1.25;;;;;;;6.87;94.32;99254.69;4937563;29;20059;-73
2023/01/06 00:34:27;;;;;;;4.68;0.90;;;;;;;6.88;94.49;99253.78;4932451;29;20476;-74
2023/01/06 00:37:11;;;;;;;4.22;1.50;;;;;;;6.86;94.48;99255.63;4951512;29;20074;-74
2023/01/06 00:39:56;;;;;;;4.72;1.27;;;;;;;6.89;94.29;99244.19;4952143;29;20051;-74
2023/01/06 00:42:40;;;;;;;4.93;1.55;;;;;;;6.87;94.59;99269.50;4931078;29;20051;-72
2023/01/06 00:45:25;;;;;;;8.68;1.65;;;;;;;6.86;94.61;99267.78;4950892;29;20068;-74
2023/01/06 00:48:10;;;;;;;4.68;1.15;;;;;;;6.82;94.86;99271.47;4950942;29;20051;-73
2023/01/06 00:51:01;;;;;;;3.58;1.38;;;;;;;6.70;95.51;99271.09;4951980;29;20039;-74
2023/01/06 00:53:46;;;;;;;4.47;1.25;;;;;;;6.77;95.22;99275.09;4940546;28;20051;-73
2023/01/06 00:56:31;;;;;;;2.20;0.80;;;;;;;6.83;95.26;99266.19;4951092;29;20122;-73
2023/01/06 00:59:23;;;;;;;4.32;1.40;;;;;;;6.83;95.01;99273.13;4951252;29;20155;-70
2023/01/06 01:02:07;;;;;;;3.38;1.38;;;;;;;6.84;95.37;99280.06;4949989;28;20186;-73
2023/01/06 01:04:52;;;;;;;6.20;1.40;;;;;;;6.93;94.44;99286.59;4951750;29;20097;-73
2023/01/06 01:07:37;;;;;;;5.70;1.38;;;;;;;6.92;94.65;99290.94;4903753;29;20047;-74
2023/01/06 01:10:22;;;;;;;5.10;1.42;;;;;;;6.87;95.13;99303.34;4934041;29;20522;-74
2023/01/06 01:13:07;;;;;;;7.05;1.55;;;;;;;6.89;94.96;99309.31;4931468;29;20048;-72
2023/01/06 01:15:52;;;;;;;9.25;1.98;;;;;;;6.90;94.96;99311.03;4941607;29;20039;-73
2023/01/06 01:18:37;;;;;;;5.47;1.33;;;;;;;6.97;94.43;99311.59;4935844;29;20712;-74
2023/01/06 01:21:23;;;;;;;3.75;1.25;;;;;;;6.94;94.64;99309.97;4950301;29;20055;-72
2023/01/06 01:24:09;;;;;;;8.30;1.30;;;;;;;7.03;94.17;99322.56;4927350;29;20122;-72
2023/01/06 01:26:54;;;;;;;5.35;1.23;;;;;;;7.06;93.85;99333.78;4936548;29;20043;-72
2023/01/06 01:29:38;;;;;;;4.93;1.40;;;;;;;7.10;93.62;99322.31;4922998;29;20043;-72
2023/01/06 01:32:23;;;;;;;9.18;1.90;;;;;;;7.13;93.05;99330.81;4936198;29;20487;-73
2023/01/06 01:35:08;;;;;;;7.45;1.60;;;;;;;7.15;92.93;99333.34;4950629;29;20487;-73
2023/01/06 01:37:53;;;;;;;3.97;1.25;;;;;;;7.09;93.13;99331.03;4942502;29;20051;-73
2023/01/06 01:40:45;;;;;;;5.63;1.60;;;;;;;7.21;92.64;99329.63;4951459;29;20051;-73
2023/01/06 01:43:49;;;;;;;3.72;1.25;;;;;;;7.06;93.20;99336.38;4919118;29;20106;-73
2023/01/06 01:46:41;;;;;;;3.88;1.40;;;;;;;7.19;92.75;99347.09;4950831;29;20058;-72
2023/01/06 01:49:31;;;;;;;6.38;1.50;;;;;;;7.22;92.80;99349.56;4950232;29;20161;-72
2023/01/06 01:52:17;;;;;;;3.90;1.20;;;;;;;7.13;93.14;99345.63;4936945;29;20148;-72
2023/01/06 01:55:04;;;;;;;4.70;1.30;;;;;;;7.24;92.67;99359.03;4950772;29;20419;-72
2023/01/06 01:58:13;;;;;;;6.40;1.90;;;;;;;7.25;92.12;99357.25;4935999;29;20054;-73
2023/01/06 02:00:58;;;;;;;5.75;1.48;;;;;;;7.27;92.30;99355.41;4950700;29;20047;-69
2023/01/06 02:03:43;;;;;;;6.65;1.40;;;;;;;7.25;92.09;99359.84;4930531;28;20287;-72
2023/01/06 02:06:29;;;;;;;5.35;1.20;;;;;;;7.17;92.88;99356.72;4941748;28;20105;-72
2023/01/06 02:09:36;;;;;;;5.13;1.35;;;;;;;7.12;93.03;99357.81;4940282;29;20075;-73
2023/01/06 02:12:21;;;;;;;5.22;1.45;;;;;;;7.12;92.99;99355.19;4939953;29;20047;-73
2023/01/06 02:15:28;;;;;;;8.15;1.23;;;;;;;7.04;93.54;99346.88;4936286;29;20106;-73
2023/01/06 02:18:21;;;;;;;6.50;1.48;;;;;;;6.96;94.36;99347.22;4931741;28;20065;-75
2023/01/06 02:21:37;;;;;;;4.82;1.10;;;;;;;7.01;94.40;99350.47;4954085;29;20035;-73
2023/01/06 02:24:50;;;;;;;5.13;1.50;;;;;;;6.98;94.27;99344.53;4932302;29;20035;-73
2023/01/06 02:28:19;;;;;;;6.13;1.75;;;;;;;7.07;93.78;99349.34;4951921;29;20051;-74
2023/01/06 02:31:35;;;;;;;8.55;1.20;;;;;;;7.10;93.45;99344.00;4918223;29;20178;-72
2023/01/06 02:34:29;;;;;;;7.20;1.38;;;;;;;7.14;93.11;99352.53;4944333;29;20043;-75
2023/01/06 02:37:57;;;;;;;5.97;1.38;;;;;;;7.10;93.16;99348.38;4947663;29;20634;-73
2023/01/06 02:40:59;;;;;;;6.20;1.48;;;;;;;7.22;92.82;99358.22;4932366;29;20055;-72
2023/01/06 02:43:57;;;;;;;6.38;1.30;;;;;;;7.24;92.47;99355.56;4932657;29;20051;-73
2023/01/06 02:47:02;;;;;;;8.70;1.83;;;;;;;7.29;91.99;99350.13;4944609;29;20039;-74
2023/01/06 02:49:53;;;;;;;5.03;1.30;;;;;;;7.30;91.85;99354.41;4942522;28;20043;-71
2023/01/06 02:52:41;;;;;;;7.05;1.20;;;;;;;7.33;91.66;99357.75;4938637;29;20044;-74
2023/01/06 02:55:42;;;;;;;7.70;1.42;;;;;;;7.20;92.24;99362.66;4939230;29;20122;-72
2023/01/06 02:58:36;;;;;;;5.63;1.50;;;;;;;6.97;93.97;99363.72;4925078;29;20047;-72
2023/01/06 03:01:31;;;;;;;4.55;1.30;;;;;;;7.05;93.82;99361.59;4934099;29;20102;-72
2023/01/06 03:04:30;;;;;;;5.13;1.17;;;;;;;7.06;93.82;99365.03;4938557;29;20048;-73
2023/01/06 03:07:20;;;;;;;5.22;1.63;;;;;;;7.10;93.48;99364.00;4914383;29;20044;-73
2023/01/06 03:10:08;;;;;;;8.63;1.52;;;;;;;7.15;93.34;99369.84;4940441;29;20051;-75
2023/01/06 03:13:00;;;;;;;5.18;1.35;;;;;;;7.03;94.68;99364.25;4943385;29;20055;-73
2023/01/06 03:15:46;;;;;;;5.03;1.50;;;;;;;7.08;94.28;99368.44;4938872;29;20679;-72
2023/01/06 03:18:32;;;;;;;6.38;1.48;;;;;;;6.95;95.22;99366.38;4928179;29;20467;-73
2023/01/06 03:21:21;;;;;;;6.63;1.63;;;;;;;7.06;95.09;99365.03;4938626;29;20154;-72
2023/01/06 03:24:08;;;;;;;6.18;1.65;;;;;;;7.10;95.06;99364.00;4938218;29;20047;-73
2023/01/06 03:26:54;;;;;;;5.38;1.42;;;;;;;7.22;94.16;99370.41;4953621;29;20047;-74
2023/01/06 03:29:39;;;;;;;7.50;1.90;;;;;;;7.24;93.52;99369.44;4938559;29;20039;-71
2023/01/06 03:32:41;;;;;;;6.55;1.60;;;;;;;7.25;92.95;99371.13;4938130;29;20455;-71
2023/01/06 03:35:56;;;;;;;4.15;1.10;;;;;;;7.14;92.91;99370.75;4952234;29;20045;-72
2023/01/06 03:38:58;;;;;;;7.38;1.70;;;;;;;7.14;94.63;99379.44;4952844;29;20051;-73
2023/01/06 03:45:07;;;;;;;6.97;1.40;;;;;;;7.08;95.04;99381.47;4939488;29;20051;-72
2023/01/06 03:47:59;;;;;;;3.42;1.40;;;;;;;7.20;94.73;99374.84;4949130;28;20041;-72
2023/01/06 03:50:50;;;;;;;5.97;1.20;;;;;;;7.35;93.54;99378.53;4944770;29;20459;-72
2023/01/06 03:53:48;;;;;;;4.40;1.35;;;;;;;7.35;93.47;99379.38;4935909;29;20066;-73
2023/01/06 03:56:40;;;;;;;4.40;1.30;;;;;;;7.14;93.73;99378.56;4936201;29;20256;-73
2023/01/06 03:59:29;;;;;;;6.25;1.52;;;;;;;7.13;93.14;99379.50;4922060;29;20487;-70
2023/01/06 04:02:19;;;;;;;5.80;1.60;;;;;;;7.15;94.11;99388.06;4936994;29;20122;-72
2023/01/06 04:05:04;;;;;;;3.90;1.17;;;;;;;7.03;93.43;99382.50;4924805;29;20395;-72
2023/01/06 04:07:49;;;;;;;6.15;1.30;;;;;;;7.00;93.61;99374.00;4925709;29;20385;-70
2023/01/06 04:10:34;;;;;;;3.53;1.27;;;;;;;7.00;92.72;99385.25;4921218;29;20126;-71
2023/01/06 04:13:19;;;;;;;4.85;1.50;;;;;;;7.01;93.00;99388.69;4923324;29;20427;-71
2023/01/06 04:16:05;;;;;;;6.65;1.65;;;;;;;7.02;91.98;99392.97;4950699;29;20043;-71
2023/01/06 04:18:50;;;;;;;5.15;1.35;;;;;;;7.02;93.60;99396.44;4936790;29;20035;-71
2023/01/06 04:21:35;;;;;;;6.63;2.10;;;;;;;6.77;96.30;99402.72;4936601;29;20126;-71
2023/01/06 04:24:20;;;;;;;6.13;1.38;;;;;;;6.43;99.16;99398.91;4937925;29;20043;-70
2023/01/06 04:27:05;;;;;;;6.60;1.75;;;;;;;6.33;100.00;99402.81;4948763;29;20055;-71
2023/01/06 04:29:50;;;;;;;3.38;1.48;;;;;;;6.13;100.00;99404.47;4936806;29;20043;-71
2023/01/06 04:32:35;;;;;;;5.80;2.03;;;;;;;6.19;100.00;99406.81;4951645;29;20063;-70
2023/01/06 04:35:23;;;;;;;5.15;1.52;;;;;;;6.30;100.00;99403.78;4937720;29;20261;-71
2023/01/06 04:38:08;;;;;;;6.25;1.40;;;;;;;6.46;100.00;99404.03;4937282;29;20051;-71
2023/01/06 04:40:53;;;;;;;2.97;1.55;;;;;;;6.67;99.86;99416.19;4951575;29;20141;-72
2023/01/06 04:43:37;;;;;;;4.80;1.67;;;;;;;6.88;97.46;99417.91;4931821;29;20202;-69
2023/01/06 04:46:22;;;;;;;3.47;1.42;;;;;;;6.85;97.32;99412.81;4938059;29;20050;-72
2023/01/06 04:49:07;;;;;;;5.03;1.35;;;;;;;6.93;97.24;99411.63;4937396;29;20047;-70
2023/01/06 04:51:51;;;;;;;3.30;1.42;;;;;;;7.00;96.75;99413.91;4947075;29;20053;-70
2023/01/06 04:54:36;;;;;;;3.45;1.13;;;;;;;7.02;96.46;99416.44;4952067;29;20078;-71
2023/01/06 04:57:21;;;;;;;3.92;1.40;;;;;;;6.97;96.32;99411.44;4912417;29;20051;-70
2023/01/06 05:00:06;;;;;;;5.45;1.65;;;;;;;6.89;96.62;99418.72;4951336;29;20047;-70
2023/01/06 05:02:51;;;;;;;4.97;1.60;;;;;;;6.95;96.91;99410.66;4949581;28;20114;-70
2023/01/06 05:05:38;;;;;;;3.92;1.50;;;;;;;7.00;96.32;99413.06;4951207;28;20041;-70
2023/01/06 05:08:22;;;;;;;4.35;1.38;;;;;;;6.75;96.88;99414.97;4950488;29;20063;-69
2023/01/06 05:11:19;;;;;;;6.68;1.67;;;;;;;6.76;97.31;99403.63;4946956;28;20055;-71
2023/01/06 05:14:04;;;;;;;2.47;1.10;;;;;;;6.75;97.50;99401.09;4939685;29;20138;-71
2023/01/06 05:16:49;;;;;;;4.90;1.17;;;;;;;6.79;97.76;99400.03;4950748;29;20047;-71
2023/01/06 05:19:33;;;;;;;4.25;1.30;;;;;;;6.78;97.45;99399.22;4951667;29;20059;-72
2023/01/06 05:22:19;;;;;;;5.15;1.60;;;;;;;6.80;97.58;99395.69;4948792;29;20126;-70
2023/01/06 05:25:03;;;;;;;5.80;1.38;;;;;;;6.72;97.80;99399.47;4950686;28;20058;-70
2023/01/06 05:27:48;;;;;;;5.75;1.60;;;;;;;6.66;97.89;99410.13;4950581;29;20139;-71
2023/01/06 05:30:33;;;;;;;4.18;1.58;;;;;;;6.59;98.42;99408.72;4951093;29;20078;-71
2023/01/06 05:33:18;;;;;;;4.05;1.20;;;;;;;6.55;98.34;99409.72;4935877;29;20058;-71
2023/01/06 05:36:06;;;;;;;3.42;1.15;;;;;;;6.49;98.62;99422.13;4950731;29;20463;-71
2023/01/06 05:38:52;;;;;;;3.75;1.13;;;;;;;6.46;99.15;99434.41;4943073;29;20105;-71
2023/01/06 05:41:36;;;;;;;4.97;1.50;;;;;;;6.48;98.78;99432.59;4944889;29;20047;-71
2023/01/06 05:44:21;;;;;;;4.68;1.50;;;;;;;6.49;98.91;99427.31;4955240;29;20054;-71
2023/01/06 05:47:05;;;;;;;4.57;1.40;;;;;;;6.42;99.11;99428.47;4941447;28;20430;-73
2023/01/06 05:49:50;;;;;;;5.72;2.05;;;;;;;6.38;99.82;99426.91;4957284;28;20076;-72
2023/01/06 05:52:35;;;;;;;3.50;1.20;;;;;;;6.37;99.48;99433.00;4954534;28;20102;-72
2023/01/06 05:55:20;;;;;;;3.15;1.25;;;;;;;6.37;99.35;99427.81;4957402;29;20039;-72
2023/01/06 05:58:04;;;;;;;4.03;1.45;;;;;;;6.24;100.00;99427.44;4950989;29;20074;-71
2023/01/06 06:00:50;;;;;;;4.18;1.25;;;;;;;6.30;100.00;99432.41;4961807;29;20043;-70
2023/01/06 06:03:36;;;;;;;4.18;1.20;;;;;;;6.34;100.00;99434.00;4929445;29;20130;-71
2023/01/06 06:06:22;;;;;;;5.07;1.40;;;;;;;6.34;100.00;99435.72;4956298;28;20058;-71
2023/01/06 06:09:08;;;;;;;2.97;0.90;;;;;;;6.37;100.00;99433.00;4958183;29;20047;-71
2023/01/06 06:11:53;;;;;;;2.55;1.27;;;;;;;6.65;100.00;99442.28;4956805;28;20097;-68
2023/01/06 06:14:39;;;;;;;5.93;1.20;;;;;;;6.65;100.00;99439.69;4957497;28;20055;-69
2023/01/06 06:17:24;;;;;;;3.28;1.08;;;;;;;6.60;100.00;99436.44;4945132;29;20051;-68
2023/01/06 06:20:10;;;;;;;5.57;1.45;;;;;;;6.44;100.00;99438.81;4956852;28;20046;-70
2023/01/06 06:22:55;;;;;;;2.95;1.20;;;;;;;6.28;100.00;99445.47;4955119;29;20046;-72
2023/01/06 06:25:40;;;;;;;2.80;1.10;;;;;;;6.19;100.00;99443.25;4947111;29;20126;-72
2023/01/06 06:28:24;;;;;;;3.55;1.15;;;;;;;6.27;100.00;99446.41;4942552;29;20415;-70
2023/01/06 06:31:16;;;;;;;3.95;1.10;;;;;;;6.40;100.00;99451.09;4956545;29;20110;-72
2023/01/06 06:34:01;;;;;;;;;;;;;;;6.24;100.00;99458.66;4957158;28;20047;-71
2023/01/06 06:36:46;;;;;;;5.57;1.73;;;;;;;6.13;100.00;99456.50;4947780;29;20298;-72
2023/01/06 06:39:31;;;;;;;2.90;1.02;;;;;;;6.09;100.00;99457.53;4941091;29;20126;-72
2023/01/06 06:42:15;;;;;;;4.00;1.33;;;;;;;6.18;100.00;99467.59;4945387;29;20094;-74
2023/01/06 06:45:00;;;;;;;6.68;1.38;;;;;;;6.23;100.00;99465.66;4957051;29;20058;-72
2023/01/06 06:47:45;;;;;;;2.63;0.93;;;;;;;6.19;100.00;99464.06;4939864;29;20411;-74
2023/01/06 06:50:30;;;;;;;5.00;1.50;;;;;;;6.33;100.00;99471.34;4938637;28;20592;-76
2023/01/06 06:53:15;;;;;;;3.17;1.10;;;;;;;6.61;99.23;99472.00;4951016;28;20058;-73
2023/01/06 06:56:01;;;;;;;2.28;1.05;;;;;;;6.86;97.50;99478.75;4943952;29;20419;-68
2023/01/06 06:58:46;;;;;;;3.95;1.13;;;;;;;7.01;96.13;99480.75;4953503;29;20482;-68
2023/01/06 07:01:31;;;;;;;3.35;1.10;;;;;;;7.30;92.34;99484.75;4953211;29;20047;-68
2023/01/06 07:04:16;;;;;;;6.90;1.52;;;;;;;7.31;91.00;99481.25;4953188;29;20043;-60
2023/01/06 07:07:01;;;;;;;6.25;1.10;;;;;;;7.57;95.29;99468.81;4949505;29;20070;-68
2023/01/06 07:09:46;;;;;;;6.72;1.40;;;;;;;8.17;98.74;99475.66;4928189;29;20079;-68
2023/01/06 07:12:31;;;;;;;4.40;0.98;;;;;;;7.90;98.54;99478.63;4946615;29;20388;-67
2023/01/06 07:15:16;;;;;;;5.53;1.50;;;;;;;7.64;99.23;99484.13;4939050;29;20047;-68
2023/01/06 07:18:02;;;;;;;9.88;2.10;;;;;;;7.39;97.69;99487.81;4953249;29;20133;-68
2023/01/06 07:20:49;;;;;;;5.80;1.63;;;;;;;7.18;94.79;99484.38;4948507;29;20501;-68
2023/01/06 07:23:34;;;;;;;2.78;1.40;;;;;;;6.95;95.36;99486.22;4950938;28;20142;-68
2023/01/06 07:26:19;;;;;;;4.68;1.38;;;;;;;7.19;97.73;99495.66;4943837;29;20047;-67
2023/01/06 07:29:03;;;;;;;3.47;1.55;;;;;;;7.15;96.34;99487.09;4953142;29;20051;-69
2023/01/06 07:31:48;;;;;;;5.05;1.60;;;;;;;7.05;96.96;99483.22;4953324;29;20063;-67
2023/01/06 07:34:33;;;;;;;4.55;2.47;;;;;;;6.94;94.88;99479.28;4945934;28;20451;-67
2023/01/06 07:37:19;;;;;;;7.85;1.80;;;;;;;6.88;97.41;99484.75;4951666;29;20039;-68
2023/01/06 07:40:04;;;;;;;6.45;1.95;;;;;;;7.18;96.57;99481.75;4952285;29;20054;-67
2023/01/06 07:42:49;;;;;;;4.78;1.70;;;;;;;7.52;97.14;99485.50;4952521;29;20086;-67
2023/01/06 07:45:35;;;;;;;6.82;2.33;;;;;;;7.69;96.14;99483.03;4936069;29;20070;-68
2023/01/06 07:48:20;;;;;;;3.75;1.63;;;;;;;7.64;97.40;99483.25;4953468;29;20082;-70
2023/01/06 07:51:05;;;;;;;6.43;2.53;;;;;;;7.70;96.52;99484.75;4925389;29;20047;-67
2023/01/06 07:53:50;;;;;;;5.82;1.95;;;;;;;7.80;96.55;99482.59;4946398;28;20058;-68
2023/01/06 07:56:35;;;;;;;6.30;1.95;;;;;;;7.96;97.76;99480.97;4948125;28;20063;-68
2023/01/06 07:59:20;;;;;;;6.82;1.83;;;;;;;7.93;93.00;99478.47;4951085;28;20059;-67
2023/01/06 08:02:05;;;;;;;3.40;1.50;;;;;;;7.96;92.93;99486.19;4953366;29;20130;-69
2023/01/06 08:04:49;;;;;;;3.20;1.98;;;;;;;8.22;92.36;99478.91;4946155;28;20491;-71
2023/01/06 08:07:34;;;;;;;6.15;2.97;;;;;;;8.21;91.13;99478.97;4936960;29;20058;-69
2023/01/06 08:10:20;;;;;;;5.97;2.13;;;;;;;8.42;90.22;99479.69;4951792;29;20074;-71
2023/01/06 08:13:06;;;;;;;6.82;1.98;;;;;;;8.60;89.37;99479.75;4936662;29;20704;-68
2023/01/06 08:15:51;;;;;;;13.00;2.20;;;;;;;8.77;90.10;99483.28;4942967;29;20047;-69
2023/01/06 08:18:36;;;;;;;6.38;1.98;;;;;;;8.59;88.64;99493.72;4953371;29;20470;-69
2023/01/06 08:21:21;;;;;;;4.07;1.55;;;;;;;8.68;88.45;99497.66;4952929;29;20537;-70
2023/01/06 08:24:06;;;;;;;5.60;1.80;;;;;;;8.89;88.49;99489.69;4927453;29;20040;-68
2023/01/06 08:26:51;;;;;;;5.15;1.65;;;;;;;9.04;86.54;99493.31;4938056;29;20221;-68
2023/01/06 08:29:36;;;;;;;14.85;6.32;;;;;;;9.15;84.34;99495.34;4953003;29;20054;-69
2023/01/06 08:32:21;;;;;;;8.13;2.60;;;;;;;9.01;83.71;99490.84;4946804;29;20067;-70
2023/01/06 08:35:06;;;;;;;10.23;2.83;;;;;;;9.09;82.57;99489.50;4950121;29;20055;-67
2023/01/06 08:37:51;;;;;;;4.25;1.52;;;;;;;9.22;82.75;99500.19;4952717;29;20403;-70
2023/01/06 08:40:36;;;;;;;6.13;1.70;;;;;;;9.39;82.46;99495.88;4953107;29;20168;-68
2023/01/06 08:43:21;;;;;;;5.07;1.75;;;;;;;9.40;82.41;99494.94;4953087;29;20483;-69
2023/01/06 08:46:09;;;;;;;5.63;1.58;;;;;;;9.41;83.55;99491.41;4913838;29;20052;-68
2023/01/06 08:48:55;;;;;;;2.65;1.30;;;;;;;9.52;80.95;99498.69;4953016;28;20130;-69
2023/01/06 08:51:44;;;;;;;7.50;1.60;;;;;;;9.48;81.15;99500.59;4909880;29;20062;-70
2023/01/06 08:54:30;;;;;;;5.85;1.42;;;;;;;9.41;79.96;99508.84;4952636;29;20066;-68
2023/01/06 08:57:15;;;;;;;4.07;1.77;;;;;;;9.46;80.84;99501.63;4953339;28;20097;-69
2023/01/06 08:59:59;;;;;;;6.95;1.55;;;;;;;9.50;78.29;99503.13;4953161;29;20047;-69
2023/01/06 09:02:45;;;;;;;6.43;1.55;;;;;;;9.47;78.43;99512.00;4930804;29;20406;-68
2023/01/06 09:05:32;;;;;;;5.28;1.70;;;;;;;9.51;78.93;99509.22;4949800;28;20118;-68
2023/01/06 09:08:17;;;;;;;5.32;1.73;;;;;;;9.56;78.48;99502.84;4922895;29;20067;-69
2023/01/06 09:11:07;;;;;;;5.68;1.75;;;;;;;9.65;78.30;99509.34;4933578;29;20058;-71
2023/01/06 09:13:52;;;;;;;2.88;1.35;;;;;;;9.65;77.53;99505.88;4941320;29;20050;-69
2023/01/06 09:16:36;;;;;;;5.85;1.42;;;;;;;9.67;77.67;99506.66;4937925;29;20055;-69
2023/01/06 09:19:22;;;;;;;6.40;1.90;;;;;;;9.76;78.03;99498.28;4952300;29;20051;-70
2023/01/06 09:22:06;;;;;;;7.88;1.20;;;;;;;9.86;76.10;99499.50;4952215;29;20061;-70
2023/01/06 09:24:51;;;;;;;5.15;1.30;;;;;;;9.98;75.15;99499.75;4937206;29;20134;-68
2023/01/06 09:27:36;;;;;;;5.05;1.25;;;;;;;10.23;75.16;99499.25;4953442;29;20054;-69
2023/01/06 09:30:21;;;;;;;3.15;1.10;;;;;;;10.41;73.72;99493.91;4952087;29;20043;-69
2023/01/06 09:33:05;;;;;;;5.07;1.00;;;;;;;10.92;73.19;99490.19;4952360;29;20047;-67
2023/01/06 09:35:50;;;;;;;5.32;1.55;;;;;;;11.08;71.11;99492.75;4947359;29;20119;-68
2023/01/06 09:38:35;;;;;;;4.22;1.45;;;;;;;11.77;70.74;99485.19;4951880;29;20047;-68
2023/01/06 09:41:22;;;;;;;11.68;3.17;;;;;;;12.49;69.27;99486.84;4924206;29;20066;-68
2023/01/06 09:44:13;;;;;;;10.82;3.75;;;;;;;12.94;64.46;99486.53;4952727;29;20526;-68
2023/01/06 09:47:01;;;;;;;6.90;2.58;;;;;;;13.33;65.85;99493.63;4953289;29;20484;-69
2023/01/06 09:49:56;;;;;;;6.80;2.50;;;;;;;13.67;65.30;99485.19;4952529;29;20175;-68
2023/01/06 09:53:00;;;;;;;4.32;1.55;;;;;;;13.93;64.08;99474.59;4951724;29;20442;-68
2023/01/06 09:55:56;;;;;;;7.20;1.80;;;;;;;13.93;62.62;99471.97;4950972;29;20047;-69
2023/01/06 09:58:54;;;;;;;5.82;1.65;;;;;;;14.42;64.26;99464.09;4952228;29;20090;-69
2023/01/06 10:01:43;;;;;;;11.80;1.83;;;;;;;14.25;62.05;99454.75;4952230;29;20062;-70
2023/01/06 10:04:29;;;;;;;6.55;1.40;;;;;;;14.17;63.55;99455.34;4945390;28;20051;-69
2023/01/06 10:07:25;;;;;;;5.85;1.90;;;;;;;14.11;62.39;99461.06;4951636;29;20126;-69
2023/01/06 10:10:19;;;;;;;4.70;1.30;;;;;;;14.38;63.48;99442.38;4935566;29;20528;-70
2023/01/06 10:13:28;;;;;;;6.47;1.70;;;;;;;15.30;58.40;99439.13;4951117;29;20051;-61
2023/01/06 10:16:25;;;;;;;5.78;1.70;;;;;;;15.28;55.19;99439.25;4948707;28;20051;-61
2023/01/06 10:19:45;;;;;;;6.20;1.30;;;;;;;14.84;56.56;99437.28;4946317;29;20150;-61
2023/01/06 10:22:50;;;;;;;4.68;1.25;;;;;;;14.85;55.61;99438.13;4836824;29;20054;-60
2023/01/06 10:25:44;;;;;;;5.18;1.00;;;;;;;14.77;56.67;99422.88;4837112;29;20313;-62
2023/01/06 10:28:41;;;;;;;4.80;1.08;;;;;;;14.32;56.71;99423.53;4838546;29;20046;-60
2023/01/06 10:31:33;;;;;;;7.57;1.75;;;;;;;14.26;59.14;99425.66;4836726;29;20050;-62
2023/01/06 10:34:22;;;;;;;6.78;1.30;;;;;;;13.92;58.67;99428.16;4840388;29;20069;-62
2023/01/06 10:37:33;;;;;;;4.57;0.98;;;;;;;12.14;64.27;99429.56;4837183;29;20388;-68
2023/01/06 10:40:29;;;;;;;5.13;1.73;;;;;;;12.04;66.23;99430.13;4838655;29;20049;-63
2023/01/06 10:43:14;;;;;;;6.13;1.40;;;;;;;11.99;67.30;99433.97;4837374;29;20050;-65
2023/01/06 10:45:59;;;;;;;3.90;1.55;;;;;;;11.42;71.12;99433.97;4838298;29;20061;-67
2023/01/06 10:48:45;;;;;;;5.20;1.90;;;;;;;11.20;73.42;99425.63;4836785;29;20054;-69
2023/01/06 10:51:44;;;;;;;5.47;1.95;;;;;;;11.02;75.37;99426.72;4810465;29;20062;-66
2023/01/06 10:54:32;;;;;;;4.78;1.67;;;;;;;11.18;74.68;99418.81;4831706;29;20053;-66
2023/01/06 10:57:31;;;;;;;4.55;1.80;;;;;;;11.00;75.25;99415.50;4872033;29;20431;-63
2023/01/06 11:00:22;;;;;;;8.23;2.25;;;;;;;12.06;99.37;99409.84;4945074;29;20047;-55
2023/01/06 11:03:12;;;;;;;10.32;3.42;;;;;;;13.62;100.00;99408.31;4948482;28;20158;-49
2023/01/06 11:05:59;;;;;;;5.03;1.60;;;;;;;14.75;78.12;99401.84;4952016;28;20046;-65
2023/01/06 11:08:44;;;;;;;7.85;1.75;;;;;;;12.29;74.77;99399.66;4938026;28;20067;-68
2023/01/06 11:11:30;;;;;;;8.10;1.95;;;;;;;11.31;77.62;99408.41;4949372;28;20142;-68
2023/01/06 11:14:21;;;;;;;7.47;1.52;;;;;;;10.79;80.88;99398.34;4946212;28;20116;-65
2023/01/06 11:17:09;;;;;;;6.70;1.70;;;;;;;10.26;84.29;99393.50;4952522;28;20059;-66
2023/01/06 11:20:11;;;;;;;6.05;1.80;;;;;;;11.20;100.00;99391.53;4952206;28;20129;-65
2023/01/06 11:23:12;;;;;;;7.68;2.13;;;;;;;11.16;88.76;99389.19;4938351;29;20047;-66
2023/01/06 11:26:05;;;;;;;9.63;2.33;;;;;;;12.77;100.00;99392.16;4949643;28;20149;-45
2023/01/06 11:28:54;;;;;;;5.05;2.13;;;;;;;15.10;99.04;99381.69;4954284;28;20099;-68
2023/01/06 11:31:47;;;;;;;10.80;2.15;;;;;;;15.40;88.04;99384.66;4953069;28;20051;-51
2023/01/06 11:34:32;;;;;;;6.13;2.40;;;;;;;13.84;84.77;99380.47;4936143;28;20047;-69
2023/01/06 11:37:45;;;;;;;9.93;3.10;;;;;;;12.70;81.61;99386.47;4951505;28;20059;-69
2023/01/06 11:40:32;;;;;;;9.63;2.33;;;;;;;12.80;86.25;99376.19;4944364;28;20079;-68
2023/01/06 11:43:30;;;;;;;9.75;2.40;;;;;;;12.99;84.74;99370.50;4950373;28;20051;-64
2023/01/06 11:46:21;;;;;;;6.30;2.15;;;;;;;13.05;89.86;99369.25;4939084;29;20055;-68
2023/01/06 11:49:23;;;;;;;8.60;2.25;;;;;;;12.97;91.24;99367.16;4953662;28;20526;-69
2023/01/06 11:52:41;;;;;;;4.32;1.60;;;;;;;12.61;82.88;99356.41;4952560;29;20051;-68
2023/01/06 11:55:29;;;;;;;6.50;2.03;;;;;;;12.01;93.57;99350.69;4874007;29;20055;-68
2023/01/06 11:58:22;;;;;;;7.35;1.65;;;;;;;12.18;98.00;99346.97;4857290;29;20466;-66
2023/01/06 12:01:28;;;;;;;5.72;1.90;;;;;;;12.32;90.57;99340.81;4879748;29;20057;-66
2023/01/06 12:04:12;;;;;;;5.28;1.50;;;;;;;12.50;79.80;99340.53;4849452;29;20053;-67
2023/01/06 12:07:07;;;;;;;6.03;1.63;;;;;;;12.75;93.79;99346.72;4867550;29;20057;-69
2023/01/06 12:09:54;;;;;;;8.40;1.63;;;;;;;13.17;98.43;99342.06;4881497;29;20068;-70
2023/01/06 12:12:38;;;;;;;6.78;1.90;;;;;;;12.63;92.44;99337.91;4852695;29;20056;-69
2023/01/06 12:15:28;;;;;;;8.70;1.85;;;;;;;13.77;100.00;99335.31;4879893;29;20190;-70
2023/01/06 12:18:21;;;;;;;3.72;1.52;;;;;;;13.76;87.12;99330.97;4875660;29;20085;-65
2023/01/06 12:21:12;;;;;;;3.63;1.40;;;;;;;12.11;73.47;99337.84;4876415;29;20113;-70
2023/01/06 12:24:03;;;;;;;6.10;1.50;;;;;;;11.01;77.20;99341.16;4875713;29;20042;-69
2023/01/06 12:26:48;;;;;;;4.70;1.52;;;;;;;10.71;78.44;99338.53;4873916;29;20056;-68
2023/01/06 12:29:33;;;;;;;8.02;2.00;;;;;;;10.25;80.68;99349.06;4876820;29;20116;-71
2023/01/06 12:32:26;;;;;;;5.20;2.00;;;;;;;10.43;80.95;99341.94;4939742;29;20494;-69
2023/01/06 12:35:17;;;;;;;8.43;1.58;;;;;;;11.27;77.34;99343.94;4940399;29;20047;-69
2023/01/06 12:38:38;;;;;;;8.90;2.17;;;;;;;11.66;75.82;99337.13;4954521;29;20051;-63
2023/01/06 12:41:36;;;;;;;7.85;1.58;;;;;;;12.63;72.33;99345.78;4952183;29;20082;-67
2023/01/06 12:44:20;;;;;;;4.93;1.65;;;;;;;12.14;72.55;99341.06;4953502;28;20051;-70
2023/01/06 12:47:36;;;;;;;6.35;2.08;;;;;;;12.25;72.89;99331.66;4953403;29;20047;-69
2023/01/06 12:50:27;;;;;;;9.07;1.77;;;;;;;12.74;71.24;99345.91;4948738;28;20055;-69
2023/01/06 12:53:35;;;;;;;3.08;1.50;;;;;;;13.09;69.05;99339.13;4953818;29;20101;-68
2023/01/06 12:56:35;;;;;;;7.30;2.00;;;;;;;12.72;69.79;99341.69;4941998;29;20079;-69
2023/01/06 12:59:44;;;;;;;4.90;1.58;;;;;;;13.11;68.37;99329.34;4938967;29;20047;-68
2023/01/06 13:02:47;;;;;;;7.65;2.10;;;;;;;13.20;67.61;99322.63;4940873;29;20487;-68
2023/01/06 13:05:49;;;;;;;6.97;1.90;;;;;;;13.33;66.79;99322.56;4956781;28;20879;-69
2023/01/06 13:08:59;;;;;;;3.83;1.95;;;;;;;13.21;67.32;99319.03;4952992;28;20062;-67
2023/01/06 13:12:05;;;;;;;4.65;1.85;;;;;;;13.10;68.42;99326.81;4952850;29;20062;-69
2023/01/06 13:15:05;;;;;;;7.50;2.05;;;;;;;13.10;68.59;99314.53;4931484;29;20103;-64
2023/01/06 13:18:17;;;;;;;6.45;1.88;;;;;;;13.24;68.11;99320.59;4923459;29;20044;-67
2023/01/06 13:21:13;;;;;;;5.38;1.77;;;;;;;12.97;69.33;99319.81;4924196;29;20058;-68
2023/01/06 13:24:23;;;;;;;8.05;2.05;;;;;;;13.31;69.23;99316.56;4931677;29;20451;-68
2023/01/06 13:27:23;;;;;;;7.28;1.90;;;;;;;13.15;67.87;99320.28;4931720;29;20067;-69
2023/01/06 13:30:47;;;;;;;7.10;1.80;;;;;;;12.76;69.97;99322.13;4918497;29;20118;-68